Hidrolandia, Brazil
Current Conditions -  °F | °C
As of 9:00 AM on Saturday 22 Nov 2014 (Local Time) from SBFZ Reporting Station
Scattered Clouds Scattered Clouds  
Wind Chill: 84°   Ceiling: Unl
Heat Index: 86°   Visibility: 6mi
Dew Point: 66°   Wind: 20mph
Humidity: 55%   Direction: 120°ESE
Pressure: 29.91"   Gusts: NA
Location:  4.41°S, 40.44°W
Report Text: SBFZ 221200Z 12017KT 9999 SCT020 29/19 Q1013
Loading
Personal Weather Stations






























Interactive Weather Map New forecast layout! Learn more

10-Day Weather Forecast

Advertisements
Track Severe Weather on mobile